Time;durP1;ratioP1;P1;durP2;ratioP2;P2;SDS_P1;SDS_P2;PMS_P1;PMS_P2;Temp;Humidity;BMP_temperature;BMP_pressure;BME280_temperature;BME280_humidity;BME280_pressure;Samples;Min_cycle;Max_cycle;Signal;HPM_P1;HPM_P2
2022/07/11 00:02:12;;;;;;;1.50;1.00;;;21.10;68.50;;;;;;5047471;28;20048;-73
2022/07/11 00:04:38;;;;;;;1.45;0.57;;;21.10;68.50;;;;;;5056654;28;20041;-68
2022/07/11 00:07:04;;;;;;;2.25;0.95;;;21.10;68.50;;;;;;5059774;28;20051;-71
2022/07/11 00:09:30;;;;;;;1.08;0.77;;;21.10;68.50;;;;;;5063831;28;20031;-70
2022/07/11 00:11:57;;;;;;;0.60;0.60;;;21.00;68.60;;;;;;5058221;28;20036;-70
2022/07/11 00:14:22;;;;;;;0.68;0.38;;;21.10;68.70;;;;;;5055230;28;20132;-71
2022/07/11 00:16:50;;;;;;;0.65;0.50;;;21.00;68.70;;;;;;5055341;28;20082;-71
2022/07/11 00:19:16;;;;;;;0.43;0.43;;;21.00;68.70;;;;;;5056848;28;20064;-65
2022/07/11 00:21:41;;;;;;;0.88;0.88;;;21.00;68.70;;;;;;5048932;28;20037;-73
2022/07/11 00:24:07;;;;;;;0.57;0.57;;;21.00;68.80;;;;;;5048090;28;20032;-67
2022/07/11 00:26:34;;;;;;;0.52;0.47;;;21.00;68.70;;;;;;5044371;28;20060;-65
2022/07/11 00:29:00;;;;;;;0.40;0.38;;;21.00;68.80;;;;;;5044122;28;20128;-65
2022/07/11 00:31:25;;;;;;;0.47;0.47;;;21.00;68.90;;;;;;5046260;28;20564;-66
2022/07/11 00:33:51;;;;;;;0.80;0.80;;;21.00;68.90;;;;;;5039026;28;20064;-65
2022/07/11 00:36:17;;;;;;;0.40;0.40;;;20.90;68.90;;;;;;5044373;28;20029;-65
2022/07/11 00:38:43;;;;;;;0.50;0.50;;;20.90;69.00;;;;;;5047583;28;20029;-65
2022/07/11 00:41:08;;;;;;;0.88;0.68;;;20.90;68.90;;;;;;5048945;28;20062;-65
2022/07/11 00:43:38;;;;;;;1.13;0.77;;;21.00;69.00;;;;;;5062728;28;20079;-65
2022/07/11 00:46:09;;;;;;;0.50;0.50;;;20.90;69.00;;;;;;5043111;28;20033;-65
2022/07/11 00:48:35;;;;;;;1.02;0.30;;;20.90;69.10;;;;;;5046814;28;20029;-65
2022/07/11 00:51:05;;;;;;;0.73;0.40;;;20.90;69.70;;;;;;5046226;28;20349;-65
2022/07/11 00:53:34;;;;;;;0.45;0.35;;;20.90;69.20;;;;;;5062571;28;20361;-65
2022/07/11 00:56:00;;;;;;;1.13;0.50;;;20.90;69.10;;;;;;5047808;28;20033;-65
2022/07/11 00:58:27;;;;;;;2.28;0.65;;;20.90;69.10;;;;;;5042142;28;20045;-65
2022/07/11 01:00:53;;;;;;;0.98;0.68;;;20.90;69.20;;;;;;5049073;28;20031;-65
2022/07/11 01:03:19;;;;;;;0.57;0.52;;;20.90;69.30;;;;;;5043110;28;20045;-65
2022/07/11 01:05:44;;;;;;;1.58;0.38;;;20.90;69.20;;;;;;5039930;28;20033;-65
2022/07/11 01:08:14;;;;;;;0.50;0.50;;;20.90;69.30;;;;;;5058549;28;20037;-65
2022/07/11 01:10:39;;;;;;;7.38;0.80;;;20.90;69.30;;;;;;5045366;28;20112;-66
2022/07/11 01:13:07;;;;;;;0.85;0.85;;;20.80;69.30;;;;;;5048375;28;20112;-65
2022/07/11 01:15:35;;;;;;;0.65;0.65;;;20.80;69.20;;;;;;5048331;28;20033;-65
2022/07/11 01:18:01;;;;;;;2.85;0.80;;;20.80;69.20;;;;;;5045026;28;20450;-65
2022/07/11 01:20:27;;;;;;;0.47;0.40;;;20.80;69.30;;;;;;5049200;28;20510;-65
2022/07/11 01:22:56;;;;;;;0.65;0.40;;;20.80;69.30;;;;;;5041417;28;20037;-65
2022/07/11 01:25:31;;;;;;;0.50;0.50;;;20.80;69.30;;;;;;5038693;28;20120;-65
2022/07/11 01:28:02;;;;;;;0.52;0.50;;;20.80;69.40;;;;;;5051596;28;20020;-65
2022/07/11 01:30:30;;;;;;;1.73;0.93;;;20.80;69.50;;;;;;5043524;28;20104;-65
2022/07/11 01:32:56;;;;;;;0.90;0.60;;;20.70;69.50;;;;;;5046818;28;20790;-65
2022/07/11 01:35:23;;;;;;;0.52;0.50;;;20.70;69.40;;;;;;5068455;28;20391;-66
2022/07/11 01:37:49;;;;;;;0.50;0.50;;;20.70;69.50;;;;;;5066667;28;20025;-65
2022/07/11 01:40:15;;;;;;;0.40;0.40;;;20.80;69.50;;;;;;5049907;28;20035;-65
2022/07/11 01:42:41;;;;;;;0.82;0.50;;;20.80;69.50;;;;;;5050804;28;20345;-65
2022/07/11 01:45:08;;;;;;;0.30;0.30;;;20.80;69.50;;;;;;5051426;28;20021;-71
2022/07/11 01:47:34;;;;;;;0.40;0.40;;;20.80;69.60;;;;;;5048593;28;20063;-71
2022/07/11 01:49:59;;;;;;;1.80;0.60;;;20.80;69.60;;;;;;5050027;28;20033;-70
2022/07/11 01:52:26;;;;;;;0.63;0.50;;;20.80;69.60;;;;;;5050994;28;20036;-65
2022/07/11 01:54:52;;;;;;;0.50;0.50;;;20.80;69.60;;;;;;5048516;28;20083;-66
2022/07/11 01:57:17;;;;;;;4.80;0.50;;;20.70;69.60;;;;;;5049563;28;20433;-66
2022/07/11 01:59:43;;;;;;;0.35;0.35;;;20.70;69.60;;;;;;5067077;28;20491;-71
2022/07/11 02:02:09;;;;;;;0.90;0.70;;;20.60;69.70;;;;;;5065460;28;20040;-71
2022/07/11 02:04:34;;;;;;;1.15;0.38;;;20.60;69.70;;;;;;5050560;28;20065;-71
2022/07/11 02:07:00;;;;;;;0.43;0.35;;;20.60;69.70;;;;;;5063190;28;20032;-71
2022/07/11 02:09:26;;;;;;;1.58;0.65;;;20.60;69.70;;;;;;5048683;28;20029;-71
2022/07/11 02:11:51;;;;;;;0.50;0.50;;;20.60;69.80;;;;;;5050587;28;20392;-71
2022/07/11 02:14:17;;;;;;;0.40;0.40;;;20.60;69.70;;;;;;5065699;28;20395;-71
2022/07/11 02:16:42;;;;;;;1.20;0.77;;;20.50;69.70;;;;;;5048945;28;20412;-71
2022/07/11 02:19:10;;;;;;;0.45;0.40;;;20.50;69.90;;;;;;5051063;28;20249;-71
2022/07/11 02:21:36;;;;;;;0.80;0.47;;;20.50;69.90;;;;;;5040793;28;20490;-65
2022/07/11 02:24:03;;;;;;;1.50;0.60;;;20.40;69.90;;;;;;5037678;28;20026;-66
2022/07/11 02:26:28;;;;;;;0.30;0.30;;;20.40;70.10;;;;;;5064136;28;20500;-65
2022/07/11 02:28:54;;;;;;;0.30;0.30;;;20.40;70.00;;;;;;5042488;28;20025;-66
2022/07/11 02:31:20;;;;;;;0.70;0.47;;;20.40;70.10;;;;;;5051435;28;20021;-65
2022/07/11 02:33:45;;;;;;;3.05;0.38;;;20.40;70.10;;;;;;5066450;28;20021;-65
2022/07/11 02:36:11;;;;;;;0.38;0.38;;;20.40;70.20;;;;;;5063823;28;20037;-65
2022/07/11 02:38:37;;;;;;;3.30;0.50;;;20.50;70.10;;;;;;5050365;28;20366;-66
2022/07/11 02:41:03;;;;;;;0.40;0.40;;;20.40;70.10;;;;;;5050544;28;20047;-66
2022/07/11 02:43:29;;;;;;;0.63;0.45;;;20.40;70.20;;;;;;5029144;28;20029;-65
2022/07/11 02:45:55;;;;;;;0.70;0.70;;;20.40;70.20;;;;;;5046072;28;20037;-65
2022/07/11 02:48:21;;;;;;;0.43;0.43;;;20.30;70.40;;;;;;5050135;28;20048;-71
2022/07/11 02:50:47;;;;;;;0.60;0.60;;;20.30;70.50;;;;;;5049900;28;20510;-71
2022/07/11 02:53:13;;;;;;;1.27;0.68;;;20.30;70.70;;;;;;5049445;28;20443;-71
2022/07/11 02:55:38;;;;;;;4.38;0.90;;;20.30;70.60;;;;;;5065316;28;20029;-71
2022/07/11 02:58:04;;;;;;;0.40;0.40;;;20.30;70.70;;;;;;5043072;28;20112;-71
2022/07/11 03:00:30;;;;;;;1.10;0.50;;;20.30;70.90;;;;;;5056537;28;20078;-71
2022/07/11 03:02:56;;;;;;;1.58;0.40;;;20.30;71.00;;;;;;5056440;28;20079;-71
2022/07/11 03:05:22;;;;;;;1.23;0.55;;;20.20;71.00;;;;;;5038799;28;20418;-71
2022/07/11 03:07:48;;;;;;;0.77;0.60;;;20.20;71.10;;;;;;5064003;28;20029;-72
2022/07/11 03:10:14;;;;;;;0.38;0.30;;;20.20;71.20;;;;;;5050928;28;20053;-66
2022/07/11 03:12:40;;;;;;;0.32;0.32;;;20.20;71.40;;;;;;5049623;28;20078;-66
2022/07/11 03:15:06;;;;;;;0.40;0.40;;;20.20;71.50;;;;;;5065935;28;20044;-67
2022/07/11 03:17:32;;;;;;;0.40;0.40;;;20.20;71.60;;;;;;5051683;28;20033;-66
2022/07/11 03:19:57;;;;;;;0.60;0.40;;;20.10;71.70;;;;;;5045279;28;20103;-66
2022/07/11 03:22:23;;;;;;;0.47;0.47;;;20.10;71.80;;;;;;5047971;28;20035;-67
2022/07/11 03:24:52;;;;;;;0.30;0.30;;;20.10;71.80;;;;;;5065513;28;20033;-67
2022/07/11 03:27:18;;;;;;;0.52;0.52;;;20.10;71.80;;;;;;5045596;28;20362;-66
2022/07/11 03:29:43;;;;;;;0.30;0.30;;;20.10;71.80;;;;;;5046088;28;20032;-66
2022/07/11 03:32:09;;;;;;;1.15;0.38;;;20.10;71.90;;;;;;5051991;28;20532;-66
2022/07/11 03:34:35;;;;;;;0.57;0.57;;;20.10;72.00;;;;;;5036162;28;20033;-71
2022/07/11 03:37:01;;;;;;;0.47;0.47;;;20.10;72.60;;;;;;5047146;28;20037;-72
2022/07/11 03:39:27;;;;;;;0.60;0.60;;;20.00;72.10;;;;;;5048461;28;20594;-71
2022/07/11 03:41:53;;;;;;;0.40;0.40;;;20.00;72.20;;;;;;5049013;28;20119;-72
2022/07/11 03:44:19;;;;;;;0.63;0.60;;;20.00;72.30;;;;;;5047974;28;20147;-72
2022/07/11 03:46:44;;;;;;;0.95;0.70;;;20.00;72.30;;;;;;5050205;28;20033;-72
2022/07/11 03:49:10;;;;;;;4.97;0.60;;;20.00;72.30;;;;;;5036963;28;20400;-72
2022/07/11 03:51:36;;;;;;;1.20;0.50;;;19.90;72.50;;;;;;5045475;28;20040;-72
2022/07/11 03:54:02;;;;;;;0.45;0.45;;;19.90;72.60;;;;;;5049356;28;20092;-72
2022/07/11 03:56:28;;;;;;;0.30;0.30;;;19.90;72.70;;;;;;5038695;28;20030;-71
2022/07/11 03:58:54;;;;;;;0.60;0.60;;;19.90;72.70;;;;;;5063467;28;20037;-71
2022/07/11 04:01:20;;;;;;;0.55;0.20;;;19.90;72.70;;;;;;5048456;28;20031;-71
2022/07/11 04:03:46;;;;;;;0.32;0.32;;;19.90;72.80;;;;;;5041166;28;20059;-71
2022/07/11 04:06:12;;;;;;;0.95;0.60;;;19.90;72.80;;;;;;5056765;28;20020;-71
2022/07/11 04:08:38;;;;;;;1.20;0.90;;;19.90;72.80;;;;;;5054415;28;20309;-72
2022/07/11 04:11:04;;;;;;;0.95;0.40;;;19.90;72.80;;;;;;5046321;28;20043;-71
2022/07/11 04:13:30;;;;;;;2.08;0.73;;;19.90;72.90;;;;;;5047336;28;20041;-71
2022/07/11 04:15:56;;;;;;;0.52;0.52;;;19.90;73.00;;;;;;5049844;28;20515;-67
2022/07/11 04:18:22;;;;;;;0.57;0.50;;;19.80;73.00;;;;;;5047835;28;20025;-66
2022/07/11 04:20:49;;;;;;;1.08;0.60;;;19.90;73.10;;;;;;5048791;28;20041;-66
2022/07/11 04:23:15;;;;;;;0.40;0.40;;;19.90;73.10;;;;;;5071387;28;20036;-66
2022/07/11 04:25:41;;;;;;;0.30;0.30;;;19.90;73.10;;;;;;5054410;28;20078;-66
2022/07/11 04:28:07;;;;;;;0.77;0.60;;;19.90;73.00;;;;;;5062894;28;20033;-67
2022/07/11 04:30:33;;;;;;;0.52;0.43;;;19.90;73.10;;;;;;5037851;28;20037;-66
2022/07/11 04:32:59;;;;;;;2.92;0.75;;;19.80;73.20;;;;;;5063337;28;20033;-66
2022/07/11 04:35:26;;;;;;;1.17;0.40;;;19.80;73.30;;;;;;5064072;28;20037;-66
2022/07/11 04:37:52;;;;;;;0.88;0.45;;;19.90;73.30;;;;;;5048675;28;20036;-66
2022/07/11 04:40:18;;;;;;;1.65;0.60;;;19.90;73.50;;;;;;5047365;28;20032;-66
2022/07/11 04:42:44;;;;;;;0.60;0.60;;;19.90;73.70;;;;;;5061212;28;20119;-66
2022/07/11 04:45:10;;;;;;;0.55;0.55;;;19.90;73.90;;;;;;5034961;28;20025;-66
2022/07/11 04:47:36;;;;;;;0.32;0.32;;;19.80;73.90;;;;;;5049148;28;20029;-72
2022/07/11 04:50:02;;;;;;;3.38;1.35;;;19.80;73.90;;;;;;5049425;28;20055;-72
2022/07/11 04:52:27;;;;;;;0.47;0.47;;;19.80;73.90;;;;;;5045220;28;20107;-72
2022/07/11 04:54:54;;;;;;;0.52;0.52;;;19.70;74.10;;;;;;5046341;28;20567;-66
2022/07/11 04:57:20;;;;;;;1.00;0.75;;;19.70;74.60;;;;;;5048414;28;20064;-66
2022/07/11 04:59:45;;;;;;;0.70;0.60;;;19.80;74.20;;;;;;5063600;28;20136;-66
2022/07/11 05:02:11;;;;;;;0.40;0.40;;;19.70;74.20;;;;;;5046176;28;20045;-66
2022/07/11 05:04:37;;;;;;;0.43;0.43;;;19.80;74.30;;;;;;5056849;28;20029;-66
2022/07/11 05:07:03;;;;;;;0.40;0.40;;;19.90;74.40;;;;;;5063030;28;20037;-66
2022/07/11 05:09:28;;;;;;;0.35;0.35;;;19.90;74.40;;;;;;5034342;28;20095;-66
2022/07/11 05:11:54;;;;;;;0.40;0.40;;;19.90;74.30;;;;;;5062816;28;20064;-66
2022/07/11 05:14:20;;;;;;;0.35;0.35;;;19.90;74.50;;;;;;5048486;28;20511;-67
2022/07/11 05:16:45;;;;;;;1.75;0.50;;;19.90;74.60;;;;;;5044509;28;20553;-66
2022/07/11 05:19:11;;;;;;;0.73;0.63;;;19.90;74.60;;;;;;5046794;28;20112;-65
2022/07/11 05:21:37;;;;;;;0.32;0.32;;;19.90;74.60;;;;;;5048117;28;20073;-66
2022/07/11 05:24:03;;;;;;;0.40;0.40;;;20.00;74.70;;;;;;5074988;28;20036;-66
2022/07/11 05:26:28;;;;;;;0.30;0.30;;;20.00;74.70;;;;;;5040146;28;20048;-66
2022/07/11 05:28:54;;;;;;;0.77;0.57;;;20.00;74.70;;;;;;5048424;28;20059;-71
2022/07/11 05:31:20;;;;;;;0.40;0.40;;;20.00;74.80;;;;;;5047545;28;20021;-71
2022/07/11 05:33:46;;;;;;;0.55;0.55;;;20.00;74.70;;;;;;5048330;28;20040;-71
2022/07/11 05:36:12;;;;;;;0.32;0.32;;;20.00;74.70;;;;;;5046924;28;20029;-70
2022/07/11 05:38:38;;;;;;;1.00;0.32;;;20.00;74.80;;;;;;5037648;28;20441;-70
2022/07/11 05:41:04;;;;;;;0.40;0.40;;;20.00;74.80;;;;;;5046682;28;20383;-71
2022/07/11 05:43:30;;;;;;;8.20;0.38;;;20.00;74.90;;;;;;5045990;28;20031;-70
2022/07/11 05:45:55;;;;;;;0.40;0.40;;;20.10;75.10;;;;;;5039802;28;20504;-69
2022/07/11 05:48:21;;;;;;;0.28;0.28;;;20.10;75.10;;;;;;5046051;28;20108;-70
2022/07/11 05:50:47;;;;;;;0.35;0.35;;;20.10;75.10;;;;;;5046610;28;20029;-70
2022/07/11 05:53:12;;;;;;;0.30;0.30;;;20.20;75.10;;;;;;5045683;28;20029;-70
2022/07/11 05:55:38;;;;;;;0.30;0.30;;;20.10;75.20;;;;;;5046553;28;20037;-70
2022/07/11 05:58:04;;;;;;;1.00;0.40;;;20.10;75.30;;;;;;5041455;28;20025;-70
2022/07/11 06:00:30;;;;;;;0.40;0.40;;;20.10;75.30;;;;;;5041386;28;20381;-70
2022/07/11 06:02:55;;;;;;;0.20;0.20;;;20.10;75.30;;;;;;5044241;28;20041;-70
2022/07/11 06:05:22;;;;;;;0.40;0.40;;;20.00;75.40;;;;;;5063003;28;20025;-70
2022/07/11 06:10:32;;;;;;;0.47;0.47;;;20.00;75.40;;;;;;5048548;28;20076;-65
2022/07/11 06:12:58;;;;;;;0.20;0.20;;;20.00;75.60;;;;;;5045905;28;20045;-66
2022/07/11 06:15:24;;;;;;;0.40;0.40;;;20.10;75.90;;;;;;5051082;28;20549;-70
2022/07/11 06:17:50;;;;;;;1.30;0.45;;;20.10;75.80;;;;;;5050109;28;20049;-70
2022/07/11 06:20:15;;;;;;;0.20;0.20;;;20.10;75.70;;;;;;5043529;28;20033;-71
2022/07/11 06:22:41;;;;;;;0.68;0.25;;;20.10;75.70;;;;;;5047145;28;20037;-71
2022/07/11 06:25:09;;;;;;;0.30;0.30;;;20.00;75.70;;;;;;5051215;28;20500;-71
2022/07/11 06:27:35;;;;;;;0.70;0.35;;;20.00;75.80;;;;;;5051092;28;20365;-71
2022/07/11 06:30:01;;;;;;;0.30;0.30;;;20.10;75.70;;;;;;5049942;28;20326;-71
2022/07/11 06:32:27;;;;;;;0.20;0.20;;;20.10;75.70;;;;;;5048276;28;20021;-65
2022/07/11 06:34:52;;;;;;;0.20;0.20;;;20.20;75.60;;;;;;5051561;28;20051;-65
2022/07/11 06:37:18;;;;;;;0.20;0.20;;;20.20;75.50;;;;;;5042826;28;20033;-70
2022/07/11 06:39:44;;;;;;;0.43;0.43;;;20.30;75.50;;;;;;5049028;28;20040;-71
2022/07/11 06:42:10;;;;;;;0.20;0.20;;;20.30;75.40;;;;;;5042727;28;20133;-70
2022/07/11 06:44:35;;;;;;;0.22;0.22;;;20.20;75.40;;;;;;5051786;28;20032;-70
2022/07/11 06:47:01;;;;;;;0.20;0.20;;;20.20;75.80;;;;;;5065944;28;20032;-70
2022/07/11 06:49:27;;;;;;;0.35;0.20;;;20.30;75.80;;;;;;5069641;28;20029;-70
2022/07/11 06:51:52;;;;;;;0.20;0.20;;;20.30;75.90;;;;;;5049548;28;20120;-70
2022/07/11 06:54:18;;;;;;;0.30;0.30;;;20.40;75.90;;;;;;5060365;28;20051;-69
2022/07/11 06:56:44;;;;;;;0.30;0.30;;;20.50;75.70;;;;;;5047910;28;20112;-70
2022/07/11 06:59:09;;;;;;;0.40;0.40;;;20.50;75.50;;;;;;5039185;28;20053;-70
2022/07/11 07:01:35;;;;;;;1.27;0.55;;;20.50;75.40;;;;;;5039385;28;20038;-70
2022/07/11 07:04:01;;;;;;;0.20;0.20;;;20.50;75.50;;;;;;5048929;28;20037;-70
2022/07/11 07:06:26;;;;;;;0.30;0.30;;;20.50;75.60;;;;;;5052634;28;20029;-65
2022/07/11 07:08:52;;;;;;;0.45;0.40;;;20.60;75.50;;;;;;5040337;28;20033;-65
2022/07/11 07:11:19;;;;;;;0.20;0.20;;;20.70;75.50;;;;;;5060111;28;20022;-65
2022/07/11 07:13:45;;;;;;;0.22;0.20;;;20.80;75.30;;;;;;5043586;28;20037;-69
2022/07/11 07:16:11;;;;;;;0.20;0.20;;;20.80;75.20;;;;;;5048789;28;20061;-70
2022/07/11 07:18:42;;;;;;;0.20;0.20;;;20.80;75.10;;;;;;5059180;28;20037;-70
2022/07/11 07:21:08;;;;;;;0.20;0.20;;;20.90;74.90;;;;;;5046176;28;20135;-69
2022/07/11 07:23:34;;;;;;;0.20;0.20;;;20.80;74.90;;;;;;5055751;28;20780;-69
2022/07/11 07:25:59;;;;;;;0.20;0.20;;;20.90;75.00;;;;;;5060916;28;20032;-71
2022/07/11 07:28:28;;;;;;;0.20;0.20;;;21.00;74.80;;;;;;5053397;28;20044;-71
2022/07/11 07:30:54;;;;;;;0.30;0.30;;;21.10;74.60;;;;;;5052220;28;20060;-65
2022/07/11 07:33:20;;;;;;;0.30;0.30;;;21.00;74.20;;;;;;5044389;28;20061;-65
2022/07/11 07:35:45;;;;;;;0.20;0.20;;;21.00;74.40;;;;;;5063795;28;20410;-65
2022/07/11 07:38:11;;;;;;;0.30;0.30;;;21.10;74.50;;;;;;5049394;28;20080;-65
2022/07/11 07:40:36;;;;;;;0.20;0.20;;;21.30;74.50;;;;;;5046145;28;20494;-66
2022/07/11 07:43:02;;;;;;;0.20;0.20;;;21.50;74.00;;;;;;5044853;28;20074;-66
2022/07/11 07:45:28;;;;;;;0.20;0.20;;;21.60;73.20;;;;;;5048909;28;20098;-65
2022/07/11 07:47:53;;;;;;;0.20;0.20;;;21.70;72.90;;;;;;5041874;28;20040;-65
2022/07/11 07:50:20;;;;;;;0.17;0.15;;;21.70;72.90;;;;;;5050636;28;20048;-65
2022/07/11 07:52:46;;;;;;;0.20;0.20;;;21.70;72.80;;;;;;5045155;28;20056;-70
2022/07/11 07:55:12;;;;;;;0.22;0.22;;;21.60;72.90;;;;;;5046440;28;20052;-66
2022/07/11 07:57:38;;;;;;;0.20;0.20;;;21.50;72.90;;;;;;5044284;28;20064;-64
2022/07/11 08:02:50;;;;;;;0.20;0.20;;;21.60;73.20;;;;;;5042931;28;20084;-66
2022/07/11 08:05:17;;;;;;;0.10;0.10;;;21.60;73.00;;;;;;5057714;28;20037;-64
2022/07/11 08:07:43;;;;;;;0.20;0.20;;;21.60;72.80;;;;;;5063238;28;20537;-65
2022/07/11 08:10:09;;;;;;;0.20;0.20;;;21.60;72.80;;;;;;5049917;28;20033;-65
2022/07/11 08:12:35;;;;;;;0.20;0.20;;;21.60;72.60;;;;;;5045536;28;20028;-66
2022/07/11 08:15:00;;;;;;;0.30;0.30;;;21.60;72.30;;;;;;5037549;28;20043;-71
2022/07/11 08:17:26;;;;;;;0.13;0.13;;;21.60;72.10;;;;;;5057063;28;20449;-71
2022/07/11 08:19:52;;;;;;;0.20;0.20;;;21.70;72.20;;;;;;5049020;28;20036;-71
2022/07/11 08:22:17;;;;;;;0.20;0.20;;;21.70;72.00;;;;;;5077459;28;20469;-71
2022/07/11 08:24:43;;;;;;;0.20;0.20;;;21.80;71.90;;;;;;5048538;28;20059;-71
2022/07/11 08:27:09;;;;;;;0.20;0.20;;;21.80;71.70;;;;;;5048933;28;20191;-71
2022/07/11 08:29:35;;;;;;;0.20;0.20;;;21.90;71.60;;;;;;5049581;28;20478;-71
2022/07/11 08:32:01;;;;;;;0.10;0.10;;;21.90;71.60;;;;;;5046867;28;20037;-71
2022/07/11 08:34:27;;;;;;;0.20;0.20;;;22.00;71.50;;;;;;5045184;28;20127;-71
2022/07/11 08:36:53;;;;;;;0.77;0.30;;;22.00;71.40;;;;;;5061161;28;20036;-71
2022/07/11 08:39:19;;;;;;;0.25;0.25;;;22.00;71.40;;;;;;5044118;28;20037;-66
2022/07/11 08:41:45;;;;;;;0.20;0.20;;;21.90;71.40;;;;;;5046587;28;20120;-66
2022/07/11 08:44:15;;;;;;;0.30;0.30;;;21.90;71.60;;;;;;5046291;28;20428;-66
2022/07/11 08:46:41;;;;;;;0.28;0.28;;;21.90;71.70;;;;;;5047443;28;20026;-72
2022/07/11 08:49:07;;;;;;;0.20;0.20;;;21.90;71.70;;;;;;5042013;28;20057;-71
2022/07/11 08:51:37;;;;;;;0.35;0.35;;;22.10;71.60;;;;;;5043318;28;20063;-72
2022/07/11 08:54:03;;;;;;;0.20;0.20;;;22.40;71.20;;;;;;5049955;28;20701;-71
2022/07/11 08:56:29;;;;;;;0.20;0.20;;;22.60;70.50;;;;;;5050367;28;20063;-71
2022/07/11 08:58:59;;;;;;;0.50;0.20;;;22.70;70.10;;;;;;5046214;28;20057;-71
2022/07/11 09:01:31;;;;;;;0.20;0.20;;;22.70;70.40;;;;;;5045850;28;21116;-72
2022/07/11 09:03:57;;;;;;;0.20;0.20;;;22.70;69.70;;;;;;5043908;28;20395;-72
2022/07/11 09:06:23;;;;;;;0.20;0.20;;;22.60;69.60;;;;;;5048145;28;20323;-72
2022/07/11 09:08:48;;;;;;;0.40;0.32;;;22.40;69.90;;;;;;5063270;28;20530;-71
2022/07/11 09:11:15;;;;;;;0.20;0.20;;;22.30;70.10;;;;;;5042339;28;20392;-70
2022/07/11 09:13:40;;;;;;;0.25;0.25;;;22.20;70.20;;;;;;5041066;28;20119;-71
2022/07/11 09:16:08;;;;;;;0.20;0.20;;;22.00;70.40;;;;;;5048110;28;20096;-71
2022/07/11 09:18:40;;;;;;;0.32;0.32;;;21.90;70.60;;;;;;5034160;28;20113;-71
2022/07/11 09:26:46;;;;;;;0.20;0.20;;;21.70;70.70;;;;;;5048353;28;20041;-71
2022/07/11 09:29:14;;;;;;;0.25;0.25;;;21.80;70.90;;;;;;5046184;28;20155;-71
2022/07/11 09:31:44;;;;;;;0.32;0.32;;;21.80;70.90;;;;;;5042146;28;20497;-65
2022/07/11 09:34:11;;;;;;;0.20;0.10;;;21.90;70.70;;;;;;5045837;28;20054;-66
2022/07/11 09:36:54;;;;;;;0.20;0.20;;;22.00;70.60;;;;;;5055641;28;20048;-65
2022/07/11 09:39:27;;;;;;;0.20;0.20;;;22.10;70.50;;;;;;5047729;28;20052;-65
2022/07/11 09:41:53;;;;;;;0.20;0.20;;;22.10;70.90;;;;;;5040291;28;20379;-71
2022/07/11 09:44:21;;;;;;;0.20;0.20;;;22.10;70.20;;;;;;5041632;28;20028;-71
2022/07/11 09:46:49;;;;;;;0.40;0.40;;;22.10;70.10;;;;;;5043598;28;20391;-71
2022/07/11 09:49:17;;;;;;;0.30;0.30;;;22.00;70.40;;;;;;5041224;28;20510;-70
2022/07/11 09:51:44;;;;;;;0.40;0.40;;;21.90;70.70;;;;;;5064973;28;20025;-71
2022/07/11 09:54:10;;;;;;;1.10;0.65;;;21.80;70.90;;;;;;5043114;28;20127;-70
2022/07/11 09:56:45;;;;;;;0.20;0.20;;;21.80;71.20;;;;;;5041982;28;20061;-70
2022/07/11 09:59:12;;;;;;;0.28;0.28;;;21.60;71.50;;;;;;5042510;28;20083;-70
2022/07/11 10:01:39;;;;;;;0.20;0.20;;;21.60;71.70;;;;;;5036845;28;20060;-70
2022/07/11 10:04:07;;;;;;;0.75;0.52;;;21.60;71.70;;;;;;5048423;28;20032;-70
2022/07/11 10:06:34;;;;;;;0.20;0.20;;;21.60;71.60;;;;;;5033744;28;20029;-70
2022/07/11 10:09:01;;;;;;;0.43;0.43;;;21.70;71.60;;;;;;5064167;28;20068;-70
2022/07/11 10:11:27;;;;;;;0.45;0.45;;;21.70;71.50;;;;;;5045339;28;20041;-70
2022/07/11 10:13:54;;;;;;;0.40;0.38;;;21.70;71.30;;;;;;5040462;28;20523;-70
2022/07/11 10:16:40;;;;;;;0.20;0.20;;;21.80;71.00;;;;;;5045093;28;20072;-71
2022/07/11 10:19:16;;;;;;;0.50;0.50;;;21.90;70.70;;;;;;5042738;28;20130;-71
2022/07/11 10:21:51;;;;;;;0.30;0.30;;;22.00;70.50;;;;;;5042490;28;20032;-71
2022/07/11 10:24:31;;;;;;;0.25;0.25;;;22.20;70.20;;;;;;5044251;28;20045;-70
2022/07/11 10:27:07;;;;;;;0.30;0.30;;;22.30;70.00;;;;;;5043522;28;20025;-70
2022/07/11 10:29:43;;;;;;;1.00;0.60;;;22.40;69.80;;;;;;5040376;28;20074;-71
2022/07/11 10:32:11;;;;;;;1.45;0.30;;;22.50;69.50;;;;;;5047838;28;20021;-70
2022/07/11 10:34:37;;;;;;;0.40;0.40;;;22.60;69.30;;;;;;5050806;28;20025;-71
2022/07/11 10:37:07;;;;;;;0.35;0.35;;;22.70;69.00;;;;;;5045403;28;20570;-71
2022/07/11 10:39:34;;;;;;;0.45;0.45;;;22.70;69.10;;;;;;5050926;28;20071;-70
2022/07/11 10:42:03;;;;;;;0.20;0.20;;;22.60;69.20;;;;;;5046705;28;20158;-71
2022/07/11 10:44:51;;;;;;;0.43;0.30;;;22.60;69.40;;;;;;5045465;28;20380;-71
2022/07/11 10:47:41;;;;;;;0.25;0.25;;;22.60;69.50;;;;;;5046138;28;20021;-71
2022/07/11 10:50:27;;;;;;;0.30;0.25;;;22.60;69.50;;;;;;5039091;28;20052;-70
2022/07/11 10:52:57;;;;;;;0.30;0.30;;;22.60;69.60;;;;;;5030495;28;20450;-70
2022/07/11 10:55:34;;;;;;;0.20;0.20;;;22.70;69.60;;;;;;5039562;28;20448;-70
2022/07/11 10:58:06;;;;;;;0.90;0.75;;;22.90;69.40;;;;;;5048524;28;20040;-71
2022/07/11 11:00:33;;;;;;;0.30;0.30;;;23.00;69.10;;;;;;5043126;28;20029;-71
2022/07/11 11:03:00;;;;;;;0.20;0.20;;;23.10;68.80;;;;;;5046321;28;20037;-71
2022/07/11 11:05:49;;;;;;;0.35;0.35;;;23.20;68.50;;;;;;5045467;28;20037;-71
2022/07/11 11:08:35;;;;;;;0.22;0.22;;;23.40;68.40;;;;;;5044675;28;20029;-71
2022/07/11 11:11:25;;;;;;;0.35;0.32;;;23.60;67.90;;;;;;5053488;28;20105;-71
2022/07/11 11:14:18;;;;;;;0.30;0.30;;;23.60;67.50;;;;;;5048973;28;20064;-66
2022/07/11 11:16:43;;;;;;;0.38;0.30;;;23.70;67.20;;;;;;5053262;28;20062;-66
2022/07/11 11:19:46;;;;;;;0.30;0.30;;;23.60;67.10;;;;;;5061740;28;20028;-64
2022/07/11 11:22:13;;;;;;;0.40;0.40;;;23.60;67.10;;;;;;5056739;28;20031;-66
2022/07/11 11:24:39;;;;;;;0.30;0.30;;;23.50;66.80;;;;;;5048421;28;20119;-75
2022/07/11 11:27:04;;;;;;;0.20;0.20;;;23.50;66.70;;;;;;5040348;28;20551;-66
2022/07/11 11:29:31;;;;;;;0.20;0.20;;;23.50;66.90;;;;;;5046329;28;20107;-71
2022/07/11 11:31:59;;;;;;;0.40;0.40;;;23.50;67.10;;;;;;5046058;28;20053;-71
2022/07/11 11:34:25;;;;;;;0.40;0.40;;;23.40;67.00;;;;;;5037457;28;20036;-70
2022/07/11 11:36:56;;;;;;;0.32;0.32;;;23.40;67.10;;;;;;5053937;28;20074;-72
2022/07/11 11:39:31;;;;;;;0.22;0.22;;;23.40;67.30;;;;;;5056558;28;20047;-67
2022/07/11 11:42:04;;;;;;;0.22;0.22;;;23.30;67.30;;;;;;5067700;28;20132;-73
2022/07/11 11:44:29;;;;;;;;;;;23.30;67.40;;;;;;5052203;28;20037;-72
2022/07/11 11:46:55;;;;;;;0.47;0.47;;;23.30;67.50;;;;;;5052312;28;19913;-73
2022/07/11 11:49:21;;;;;;;0.30;0.30;;;23.30;67.50;;;;;;5059276;28;20028;-73
2022/07/11 11:51:47;;;;;;;0.40;0.40;;;23.30;67.50;;;;;;5058944;28;20029;-68
2022/07/11 11:54:25;;;;;;;0.40;0.40;;;23.40;67.60;;;;;;5061009;28;20036;-68
2022/07/11 11:56:50;;;;;;;0.30;0.30;;;23.50;67.40;;;;;;5057997;28;20495;-68
2022/07/11 11:59:16;;;;;;;0.30;0.30;;;23.60;67.30;;;;;;5061863;28;20093;-68
2022/07/11 12:01:46;;;;;;;0.47;0.47;;;23.70;66.90;;;;;;5056701;28;20029;-67
2022/07/11 12:04:14;;;;;;;0.40;0.40;;;23.70;66.80;;;;;;5040232;28;20025;-68
2022/07/11 12:06:44;;;;;;;0.38;0.38;;;23.60;66.80;;;;;;5044060;28;20106;-73
2022/07/11 12:09:46;;;;;;;0.40;0.40;;;23.60;66.90;;;;;;5043172;28;20029;-73
2022/07/11 12:14:52;;;;;;;0.35;0.35;;;23.50;67.10;;;;;;5048871;28;20067;-73
2022/07/11 12:17:25;;;;;;;0.52;0.40;;;23.40;67.30;;;;;;5053104;28;20481;-72
2022/07/11 12:19:51;;;;;;;0.43;0.43;;;23.40;67.40;;;;;;5041186;28;20495;-73
2022/07/11 12:22:17;;;;;;;0.38;0.38;;;23.50;67.50;;;;;;5059101;28;20033;-72
2022/07/11 12:24:50;;;;;;;0.40;0.40;;;23.50;67.40;;;;;;5046482;28;20032;-72
2022/07/11 12:27:24;;;;;;;0.35;0.35;;;23.60;67.40;;;;;;5052559;28;20140;-72
2022/07/11 12:29:51;;;;;;;0.40;0.40;;;23.60;67.30;;;;;;5043338;28;20048;-72
2022/07/11 12:32:18;;;;;;;0.63;0.63;;;23.70;67.20;;;;;;5046392;28;20029;-72
2022/07/11 12:34:46;;;;;;;0.30;0.30;;;23.70;67.10;;;;;;5048758;28;20043;-72
2022/07/11 12:37:14;;;;;;;0.30;0.30;;;23.60;67.10;;;;;;5025636;28;20038;-72
2022/07/11 12:39:51;;;;;;;0.30;0.30;;;23.60;67.00;;;;;;5062912;28;20128;-72
2022/07/11 12:42:32;;;;;;;0.28;0.28;;;23.60;67.00;;;;;;5035662;28;20056;-72
2022/07/11 12:45:09;;;;;;;0.30;0.30;;;23.60;67.00;;;;;;5041649;28;20025;-72
2022/07/11 12:47:36;;;;;;;0.30;0.30;;;23.60;66.90;;;;;;5047709;28;20036;-68
2022/07/11 12:50:19;;;;;;;0.30;0.30;;;23.70;66.80;;;;;;5049588;28;20025;-68
2022/07/11 12:52:47;;;;;;;0.40;0.40;;;23.70;66.40;;;;;;5047850;28;20029;-67
2022/07/11 12:55:34;;;;;;;0.40;0.40;;;23.70;66.40;;;;;;5045387;28;20159;-68
2022/07/11 12:58:03;;;;;;;0.40;0.40;;;23.70;66.50;;;;;;5049138;28;20964;-68
2022/07/11 13:00:31;;;;;;;0.63;0.55;;;23.70;66.70;;;;;;5046599;28;20041;-68
2022/07/11 13:02:56;;;;;;;0.35;0.35;;;23.60;66.70;;;;;;5046693;28;20025;-72
2022/07/11 13:05:22;;;;;;;0.30;0.30;;;23.50;66.70;;;;;;5050180;28;20423;-72